Time;durP1;ratioP1;P1;durP2;ratioP2;P2;SDS_P1;SDS_P2;PMS_P1;PMS_P2;Temp;Humidity;BMP_temperature;BMP_pressure;BME280_temperature;BME280_humidity;BME280_pressure;Samples;Min_cycle;Max_cycle;Signal;HPM_P1;HPM_P2
2023/04/15 00:00:42;;;;;;;4.35;3.75;;;12.60;51.40;;;;;;5032577;28;20189;-49
2023/04/15 00:03:08;;;;;;;3.40;3.10;;;12.60;51.50;;;;;;5032409;28;20181;-49
2023/04/15 00:05:34;;;;;;;4.40;3.77;;;12.50;51.80;;;;;;5032536;28;20405;-49
2023/04/15 00:08:00;;;;;;;3.30;3.00;;;12.50;51.90;;;;;;5032460;28;20213;-48
2023/04/15 00:10:26;;;;;;;4.20;3.47;;;12.50;51.90;;;;;;5032440;28;20788;-49
2023/04/15 00:12:53;;;;;;;3.33;3.03;;;12.50;51.70;;;;;;5032138;28;20209;-49
2023/04/15 00:15:19;;;;;;;4.35;3.45;;;12.50;51.90;;;;;;5032496;28;20174;-48
2023/04/15 00:17:45;;;;;;;3.55;3.25;;;12.40;51.90;;;;;;5032481;28;20198;-49
2023/04/15 00:20:11;;;;;;;4.18;3.78;;;12.40;52.20;;;;;;5032510;28;20223;-49
2023/04/15 00:22:37;;;;;;;2.97;2.67;;;12.40;52.00;;;;;;5032058;28;20205;-49
2023/04/15 00:25:03;;;;;;;3.70;3.40;;;12.30;52.30;;;;;;5032508;28;20201;-48
2023/04/15 00:27:29;;;;;;;3.75;3.45;;;12.30;52.30;;;;;;5032011;28;20197;-49
2023/04/15 00:29:55;;;;;;;4.43;3.60;;;12.30;52.30;;;;;;5032346;28;20185;-49
2023/04/15 00:32:21;;;;;;;4.40;2.90;;;12.30;52.40;;;;;;5031471;28;20400;-48
2023/04/15 00:34:46;;;;;;;2.60;2.33;;;12.30;52.30;;;;;;5032079;28;20170;-48
2023/04/15 00:37:12;;;;;;;3.33;2.97;;;12.30;52.30;;;;;;5032398;28;20409;-49
2023/04/15 00:39:38;;;;;;;3.50;3.20;;;12.30;52.30;;;;;;5032112;28;20169;-48
2023/04/15 00:42:04;;;;;;;2.70;2.20;;;12.40;52.20;;;;;;5014167;28;20166;-49
2023/04/15 00:44:31;;;;;;;3.97;2.58;;;12.40;52.20;;;;;;5032189;28;20176;-48
2023/04/15 00:46:57;;;;;;;3.35;2.90;;;12.40;52.10;;;;;;5014614;28;20193;-48
2023/04/15 00:49:23;;;;;;;2.72;2.42;;;12.40;52.20;;;;;;5031771;28;20256;-49
2023/04/15 00:51:50;;;;;;;3.30;2.55;;;12.40;52.00;;;;;;5031974;28;20182;-49
2023/04/15 00:54:16;;;;;;;4.07;3.72;;;12.40;51.90;;;;;;5031967;28;20178;-48
2023/04/15 00:56:41;;;;;;;3.37;2.93;;;12.50;51.90;;;;;;5031801;28;20689;-48
2023/04/15 00:59:08;;;;;;;3.53;2.97;;;12.50;51.80;;;;;;5031874;28;20424;-49
2023/04/15 01:01:35;;;;;;;3.90;3.33;;;12.60;51.70;;;;;;5031809;28;20400;-49
2023/04/15 01:04:02;;;;;;;3.20;2.90;;;12.60;51.70;;;;;;5031849;28;20200;-49
2023/04/15 01:06:28;;;;;;;2.72;2.53;;;12.60;51.60;;;;;;5031901;28;20257;-49
2023/04/15 01:08:54;;;;;;;3.72;2.90;;;12.60;51.50;;;;;;5031609;28;20860;-49
2023/04/15 01:11:21;;;;;;;2.90;2.60;;;12.60;51.40;;;;;;5031695;28;20273;-49
2023/04/15 01:13:47;;;;;;;4.80;4.15;;;12.60;51.50;;;;;;5031661;28;20197;-49
2023/04/15 01:16:13;;;;;;;3.67;3.22;;;12.60;51.60;;;;;;5031985;28;20177;-49
2023/04/15 01:18:40;;;;;;;3.95;3.33;;;12.60;51.50;;;;;;5031654;28;20194;-49
2023/04/15 01:21:06;;;;;;;3.00;2.42;;;12.60;51.40;;;;;;5031802;28;20188;-49
2023/04/15 01:23:36;;;;;;;2.95;2.65;;;12.60;51.40;;;;;;5031371;28;20186;-48
2023/04/15 01:26:02;;;;;;;4.07;3.35;;;12.60;51.50;;;;;;5031526;28;20186;-49
2023/04/15 01:28:28;;;;;;;4.72;4.25;;;12.60;51.70;;;;;;5031453;28;20214;-49
2023/04/15 01:31:06;;;;;;;4.70;4.30;;;12.60;51.70;;;;;;5031617;28;20666;-49
2023/04/15 01:33:32;;;;;;;4.43;4.03;;;12.60;51.40;;;;;;5031368;28;20177;-49
2023/04/15 01:35:58;;;;;;;5.10;4.47;;;12.60;51.50;;;;;;5031612;28;20186;-49
2023/04/15 01:38:26;;;;;;;3.43;3.10;;;12.60;51.50;;;;;;5031454;28;20429;-49
2023/04/15 01:40:52;;;;;;;3.15;2.80;;;12.70;51.40;;;;;;5031477;28;20908;-49
2023/04/15 01:43:18;;;;;;;4.45;3.65;;;12.60;51.40;;;;;;5031474;28;20232;-49
2023/04/15 01:45:45;;;;;;;4.00;3.00;;;12.60;51.50;;;;;;5033867;28;20273;-49
2023/04/15 01:48:11;;;;;;;3.50;3.20;;;12.60;51.40;;;;;;5034959;28;20288;-48
2023/04/15 01:50:37;;;;;;;3.60;3.30;;;12.60;51.40;;;;;;5035045;28;20289;-49
2023/04/15 01:53:03;;;;;;;4.10;3.20;;;12.70;51.40;;;;;;5034780;28;20163;-49
2023/04/15 01:55:29;;;;;;;3.63;2.78;;;12.70;51.30;;;;;;5034908;28;20189;-49
2023/04/15 01:57:56;;;;;;;3.85;2.97;;;12.70;51.40;;;;;;5035055;28;20194;-48
2023/04/15 02:00:22;;;;;;;4.45;3.45;;;12.70;51.30;;;;;;5035160;28;20178;-49
2023/04/15 02:02:48;;;;;;;3.67;2.90;;;12.70;51.10;;;;;;5034884;28;20533;-49
2023/04/15 02:05:14;;;;;;;4.10;3.75;;;12.60;51.30;;;;;;5034778;28;20405;-49
2023/04/15 02:07:42;;;;;;;4.00;3.55;;;12.60;51.20;;;;;;5034582;28;20753;-49
2023/04/15 02:10:09;;;;;;;4.47;3.58;;;12.60;51.30;;;;;;5034969;28;20181;-49
2023/04/15 02:12:35;;;;;;;4.18;3.58;;;12.60;51.50;;;;;;5034654;28;20193;-48
2023/04/15 02:15:01;;;;;;;3.63;2.83;;;12.60;51.60;;;;;;5034336;28;20181;-49
2023/04/15 02:17:30;;;;;;;3.43;3.13;;;12.60;51.60;;;;;;5034322;28;20190;-49
2023/04/15 02:19:56;;;;;;;3.08;2.78;;;12.60;51.60;;;;;;5034331;28;20462;-49
2023/04/15 02:22:21;;;;;;;3.80;3.30;;;12.60;51.60;;;;;;5034495;28;20213;-49
2023/04/15 02:24:47;;;;;;;4.40;3.73;;;12.60;51.60;;;;;;5034447;28;20637;-48
2023/04/15 02:27:17;;;;;;;3.47;2.97;;;12.60;51.50;;;;;;5034423;28;20205;-48
2023/04/15 02:29:44;;;;;;;2.97;2.70;;;12.60;51.60;;;;;;5034489;28;20534;-49
2023/04/15 02:32:13;;;;;;;3.10;2.60;;;12.60;51.60;;;;;;5016593;28;20179;-49
2023/04/15 02:34:41;;;;;;;4.00;3.00;;;12.60;51.60;;;;;;5034375;28;20530;-49
2023/04/15 02:37:08;;;;;;;3.45;2.80;;;12.50;51.90;;;;;;5034200;28;20257;-49
2023/04/15 02:39:34;;;;;;;3.97;3.13;;;12.40;52.00;;;;;;5034335;28;20252;-49
2023/04/15 02:42:00;;;;;;;3.17;2.88;;;12.40;52.20;;;;;;5034184;28;20519;-49
2023/04/15 02:44:26;;;;;;;3.30;2.93;;;12.30;52.30;;;;;;5034176;28;20197;-49
2023/04/15 02:46:53;;;;;;;3.95;3.22;;;12.30;52.50;;;;;;5033985;28;20178;-49
2023/04/15 02:49:22;;;;;;;3.15;2.70;;;12.30;52.40;;;;;;5033720;28;20218;-48
2023/04/15 02:51:48;;;;;;;3.13;2.83;;;12.40;52.40;;;;;;5034015;28;20170;-48
2023/04/15 02:54:24;;;;;;;3.40;2.30;;;12.40;52.30;;;;;;5033784;28;20178;-49
2023/04/15 02:56:54;;;;;;;3.88;3.00;;;12.50;52.20;;;;;;5033587;28;20183;-48
2023/04/15 02:59:19;;;;;;;5.10;3.30;;;12.50;52.20;;;;;;5033714;28;20220;-49
2023/04/15 03:01:45;;;;;;;4.07;3.67;;;12.50;52.00;;;;;;5033506;28;20174;-48
2023/04/15 03:04:12;;;;;;;3.60;3.20;;;12.50;52.00;;;;;;5033592;28;20931;-48
2023/04/15 03:06:37;;;;;;;4.38;3.25;;;12.60;51.90;;;;;;5033860;28;20174;-49
2023/04/15 03:09:03;;;;;;;4.03;3.63;;;12.60;52.00;;;;;;5033495;28;20208;-49
2023/04/15 03:11:30;;;;;;;3.50;3.20;;;12.50;52.00;;;;;;5033548;28;20181;-48
2023/04/15 03:13:56;;;;;;;3.53;3.03;;;12.50;52.10;;;;;;5033576;28;20212;-48
2023/04/15 03:16:22;;;;;;;4.07;2.97;;;12.40;52.20;;;;;;5033378;28;20260;-48
2023/04/15 03:18:47;;;;;;;4.20;3.40;;;12.40;52.30;;;;;;5033414;28;20428;-49
2023/04/15 03:21:13;;;;;;;4.17;3.57;;;12.40;52.30;;;;;;5033403;28;20170;-48
2023/04/15 03:23:39;;;;;;;3.17;2.70;;;12.40;52.40;;;;;;5033006;28;20224;-49
2023/04/15 03:26:05;;;;;;;3.40;3.03;;;12.40;52.30;;;;;;5033266;28;20174;-49
2023/04/15 03:28:31;;;;;;;4.17;3.47;;;12.50;52.40;;;;;;5033366;28;20467;-49
2023/04/15 03:30:57;;;;;;;4.03;3.50;;;12.50;52.30;;;;;;5033355;28;20490;-48
2023/04/15 03:33:23;;;;;;;3.95;3.10;;;12.50;52.20;;;;;;5033151;28;20179;-49
2023/04/15 03:35:50;;;;;;;3.70;3.40;;;12.50;52.30;;;;;;5033171;28;20541;-48
2023/04/15 03:38:17;;;;;;;5.97;3.67;;;12.50;52.30;;;;;;5033102;28;20202;-49
2023/04/15 03:40:43;;;;;;;4.30;3.90;;;12.50;52.40;;;;;;5032999;28;20188;-48
2023/04/15 03:43:08;;;;;;;3.58;2.90;;;12.50;52.40;;;;;;5032761;28;20182;-48
2023/04/15 03:45:34;;;;;;;4.37;3.97;;;12.40;53.10;;;;;;5033125;28;20178;-48
2023/04/15 03:48:00;;;;;;;4.30;3.90;;;12.40;52.60;;;;;;5032599;28;20598;-49
2023/04/15 03:50:26;;;;;;;7.10;3.87;;;12.40;53.30;;;;;;5032831;28;20412;-49
2023/04/15 03:52:52;;;;;;;4.18;3.75;;;12.40;52.60;;;;;;5032813;28;20170;-49
2023/04/15 03:55:19;;;;;;;4.20;3.80;;;12.50;52.70;;;;;;5032766;28;20192;-49
2023/04/15 03:57:44;;;;;;;4.45;4.05;;;12.40;52.50;;;;;;5032598;28;20432;-49
2023/04/15 04:00:10;;;;;;;3.40;3.10;;;12.50;52.50;;;;;;5032551;28;20197;-49
2023/04/15 04:02:36;;;;;;;4.27;3.47;;;12.40;52.30;;;;;;5032353;28;20423;-48
2023/04/15 04:05:02;;;;;;;3.63;3.30;;;12.50;52.50;;;;;;5032749;28;20508;-49
2023/04/15 04:07:28;;;;;;;4.85;3.47;;;12.50;52.70;;;;;;5031739;28;20820;-49
2023/04/15 04:09:56;;;;;;;5.63;4.07;;;12.40;52.40;;;;;;5032714;28;20174;-48
2023/04/15 04:12:21;;;;;;;5.05;4.55;;;12.50;52.50;;;;;;5032217;28;20166;-48
2023/04/15 04:14:47;;;;;;;4.60;4.20;;;12.50;52.30;;;;;;5032331;28;20171;-49
2023/04/15 04:17:13;;;;;;;4.53;3.90;;;12.60;52.40;;;;;;5032589;28;20222;-49
2023/04/15 04:19:39;;;;;;;6.50;3.90;;;12.60;52.30;;;;;;5032292;28;20268;-49
2023/04/15 04:22:05;;;;;;;5.53;4.33;;;12.50;52.30;;;;;;5032085;28;20264;-48
2023/04/15 04:24:31;;;;;;;4.88;4.47;;;12.60;52.30;;;;;;5032166;28;20900;-49
2023/04/15 04:26:56;;;;;;;3.43;3.13;;;12.60;52.30;;;;;;5032201;28;20177;-49
2023/04/15 04:29:22;;;;;;;8.57;5.63;;;12.60;52.30;;;;;;5032071;28;20423;-49
2023/04/15 04:31:48;;;;;;;3.87;3.47;;;12.60;52.20;;;;;;5032030;28;20181;-48
2023/04/15 04:34:15;;;;;;;5.70;4.30;;;12.70;52.20;;;;;;5032290;28;20404;-49
2023/04/15 04:36:41;;;;;;;5.00;4.32;;;12.70;52.20;;;;;;5032048;28;20411;-49
2023/04/15 04:39:06;;;;;;;4.90;3.90;;;12.70;52.30;;;;;;5032264;28;20284;-49
2023/04/15 04:41:32;;;;;;;4.20;3.70;;;12.70;52.10;;;;;;5032311;28;20416;-48
2023/04/15 04:43:58;;;;;;;4.40;3.40;;;12.70;52.10;;;;;;5031733;28;20630;-49
2023/04/15 04:46:24;;;;;;;5.22;4.63;;;12.70;52.10;;;;;;5032162;28;20178;-49
2023/04/15 04:48:50;;;;;;;4.90;4.30;;;12.70;52.10;;;;;;5031685;28;20272;-49
2023/04/15 04:51:16;;;;;;;4.57;4.17;;;12.70;52.10;;;;;;5032252;28;20213;-48
2023/04/15 04:53:42;;;;;;;4.20;3.80;;;12.70;52.00;;;;;;5031928;28;20173;-49
2023/04/15 04:56:08;;;;;;;4.50;3.60;;;12.70;52.10;;;;;;5031926;28;20178;-49
2023/04/15 04:58:34;;;;;;;4.53;3.80;;;12.70;52.10;;;;;;5031883;28;20190;-49
2023/04/15 05:00:59;;;;;;;6.53;5.50;;;12.70;52.30;;;;;;5032037;28;20776;-48
2023/04/15 05:03:26;;;;;;;5.30;4.40;;;12.70;52.30;;;;;;5031648;28;20765;-49
2023/04/15 05:05:52;;;;;;;4.30;3.55;;;12.60;52.30;;;;;;5031676;28;20174;-49
2023/04/15 05:08:17;;;;;;;5.57;4.73;;;12.60;52.30;;;;;;5031604;28;20212;-49
2023/04/15 05:10:43;;;;;;;4.97;4.30;;;12.60;52.40;;;;;;5031706;28;20440;-49
2023/04/15 05:13:09;;;;;;;5.20;4.70;;;12.60;52.60;;;;;;5031437;28;20174;-49
2023/04/15 05:15:36;;;;;;;5.70;5.10;;;12.60;52.50;;;;;;5031720;28;20417;-49
2023/04/15 05:18:01;;;;;;;5.45;4.28;;;12.60;52.70;;;;;;5031763;28;20662;-49
2023/04/15 05:20:27;;;;;;;5.90;4.70;;;12.60;52.90;;;;;;5035683;28;20186;-49
2023/04/15 05:22:53;;;;;;;5.43;4.73;;;12.60;52.90;;;;;;5035359;28;20439;-49
2023/04/15 05:25:19;;;;;;;5.67;5.03;;;12.60;53.00;;;;;;5035469;28;20904;-49
2023/04/15 05:27:45;;;;;;;5.00;4.50;;;12.60;53.10;;;;;;5035361;28;20210;-49
2023/04/15 05:30:11;;;;;;;5.27;4.77;;;12.50;53.10;;;;;;5035436;28;20174;-49
2023/04/15 05:32:36;;;;;;;5.80;5.30;;;12.60;53.10;;;;;;5035238;28;20413;-49
2023/04/15 05:35:02;;;;;;;6.27;5.30;;;12.60;53.20;;;;;;5035280;28;20400;-49
2023/04/15 05:37:28;;;;;;;6.97;5.90;;;12.60;53.20;;;;;;5035300;28;20173;-49
2023/04/15 05:39:53;;;;;;;6.90;5.70;;;12.60;53.20;;;;;;5035195;28;20897;-49
2023/04/15 05:42:19;;;;;;;6.93;5.20;;;12.60;53.10;;;;;;5034889;28;20201;-49
2023/04/15 05:44:45;;;;;;;7.53;5.67;;;12.60;53.10;;;;;;5035326;28;20181;-49
2023/04/15 05:47:11;;;;;;;7.33;5.53;;;12.60;53.20;;;;;;5017678;28;20595;-49
2023/04/15 05:49:37;;;;;;;6.90;5.80;;;12.60;53.20;;;;;;5035119;28;20432;-49
2023/04/15 05:52:02;;;;;;;5.63;5.13;;;12.60;53.30;;;;;;5035054;28;20170;-49
2023/04/15 05:54:28;;;;;;;6.60;4.83;;;12.60;53.30;;;;;;5034919;28;20569;-49
2023/04/15 05:56:55;;;;;;;5.23;3.90;;;12.70;53.40;;;;;;5034825;28;20408;-49
2023/04/15 05:59:20;;;;;;;5.55;4.50;;;12.70;53.50;;;;;;5034853;28;20624;-48
2023/04/15 06:01:46;;;;;;;5.27;4.40;;;12.60;53.40;;;;;;5034679;28;20264;-48
2023/04/15 06:04:12;;;;;;;4.30;3.80;;;12.70;53.50;;;;;;5034862;28;20209;-48
2023/04/15 06:06:38;;;;;;;4.60;3.67;;;12.60;53.40;;;;;;5034997;28;20412;-49
2023/04/15 06:09:04;;;;;;;5.27;4.60;;;12.60;53.60;;;;;;5034894;28;20736;-49
2023/04/15 06:11:29;;;;;;;6.43;5.40;;;12.60;53.60;;;;;;5034688;28;20173;-48
2023/04/15 06:13:56;;;;;;;4.43;4.03;;;12.70;53.60;;;;;;5034543;28;20416;-48
2023/04/15 06:16:22;;;;;;;5.55;4.95;;;12.70;53.50;;;;;;5034789;28;20174;-49
2023/04/15 06:18:48;;;;;;;3.80;3.40;;;12.70;53.30;;;;;;5034781;28;20206;-48
2023/04/15 06:21:15;;;;;;;6.03;3.42;;;12.70;53.40;;;;;;5034741;28;20198;-48
2023/04/15 06:23:41;;;;;;;6.28;2.60;;;12.70;53.40;;;;;;5034189;28;20219;-49
2023/04/15 06:26:07;;;;;;;3.10;2.07;;;12.70;53.20;;;;;;5034376;28;20186;-49
2023/04/15 06:28:33;;;;;;;2.40;1.83;;;12.70;53.30;;;;;;5034177;28;20463;-48
2023/04/15 06:31:00;;;;;;;2.00;1.73;;;12.70;53.30;;;;;;5033778;28;20421;-49
2023/04/15 06:33:26;;;;;;;2.15;1.73;;;12.70;53.50;;;;;;5034086;28;20412;-48
2023/04/15 06:35:51;;;;;;;2.00;1.20;;;12.70;53.40;;;;;;5034284;28;20170;-48
2023/04/15 06:38:17;;;;;;;1.47;1.00;;;12.70;53.50;;;;;;5034091;28;20726;-49
2023/04/15 06:40:43;;;;;;;2.00;1.30;;;12.60;53.40;;;;;;5034381;28;20178;-49
2023/04/15 06:43:09;;;;;;;2.00;1.43;;;12.60;53.60;;;;;;5033840;28;20178;-49
2023/04/15 06:45:34;;;;;;;1.67;1.30;;;12.60;54.20;;;;;;5034324;28;20174;-49
2023/04/15 06:48:00;;;;;;;1.30;0.93;;;12.60;53.70;;;;;;5033740;28;20527;-49
2023/04/15 06:50:26;;;;;;;1.73;1.30;;;12.60;53.80;;;;;;5033949;28;20254;-49
2023/04/15 06:52:54;;;;;;;2.75;1.65;;;12.70;54.00;;;;;;5033916;28;20264;-49
2023/04/15 06:55:20;;;;;;;1.88;1.55;;;12.70;53.90;;;;;;5033760;28;20800;-48
2023/04/15 06:57:46;;;;;;;1.90;1.70;;;12.70;53.90;;;;;;5034037;28;20277;-48
2023/04/15 07:00:12;;;;;;;1.70;1.07;;;12.80;54.10;;;;;;5034026;28;20409;-49
2023/04/15 07:02:38;;;;;;;2.05;1.77;;;12.80;54.00;;;;;;5033613;28;20224;-49
2023/04/15 07:05:04;;;;;;;2.33;1.30;;;12.80;53.70;;;;;;5033765;28;20174;-49
2023/04/15 07:07:30;;;;;;;1.75;1.23;;;12.70;53.80;;;;;;5033484;28;20480;-49
2023/04/15 07:09:56;;;;;;;2.07;1.13;;;12.70;54.00;;;;;;5033940;28;20205;-48
2023/04/15 07:12:22;;;;;;;1.40;1.13;;;12.70;53.90;;;;;;5033516;28;20690;-48
2023/04/15 07:14:48;;;;;;;1.30;0.90;;;12.70;54.00;;;;;;5033701;28;20172;-48
2023/04/15 07:17:14;;;;;;;1.60;1.17;;;12.80;54.00;;;;;;5033606;28;20188;-49
2023/04/15 07:19:40;;;;;;;2.45;1.75;;;12.80;53.90;;;;;;5033427;28;20193;-49
2023/04/15 07:22:06;;;;;;;1.70;1.30;;;12.90;53.80;;;;;;5033164;28;20177;-48
2023/04/15 07:24:32;;;;;;;1.50;0.90;;;13.00;53.80;;;;;;5033714;28;20185;-48
2023/04/15 07:26:58;;;;;;;2.40;1.27;;;13.00;53.20;;;;;;5033226;28;20228;-49
2023/04/15 07:29:25;;;;;;;2.63;1.20;;;13.00;53.20;;;;;;5033233;28;20431;-49
2023/04/15 07:31:50;;;;;;;2.55;1.92;;;13.00;53.10;;;;;;5033182;28;20174;-49
2023/04/15 07:34:18;;;;;;;2.83;1.80;;;13.00;52.90;;;;;;5033066;28;20678;-48
2023/04/15 07:36:44;;;;;;;2.08;1.63;;;13.00;53.20;;;;;;5033241;28;20174;-49
2023/04/15 07:39:10;;;;;;;2.10;0.90;;;13.10;53.30;;;;;;5032907;28;20287;-49
2023/04/15 07:41:36;;;;;;;1.57;1.07;;;13.10;52.80;;;;;;5032828;28;20209;-48
2023/04/15 07:44:02;;;;;;;2.55;1.80;;;13.10;52.80;;;;;;5032823;28;20484;-49
2023/04/15 07:46:28;;;;;;;2.40;1.50;;;13.10;52.80;;;;;;5032973;28;20737;-49
2023/04/15 07:48:54;;;;;;;2.00;1.23;;;13.20;52.80;;;;;;5032615;28;20541;-48
2023/04/15 07:51:20;;;;;;;1.80;1.30;;;13.20;52.60;;;;;;5032999;28;20409;-48
2023/04/15 07:53:49;;;;;;;2.58;1.33;;;13.20;52.40;;;;;;5032488;28;20173;-48
2023/04/15 07:56:15;;;;;;;1.40;1.00;;;13.30;52.40;;;;;;5032708;28;20213;-49
2023/04/15 07:58:41;;;;;;;2.90;1.60;;;13.30;52.50;;;;;;5032894;28;20277;-49
2023/04/15 08:01:07;;;;;;;1.55;1.13;;;13.30;52.40;;;;;;5032822;28;20542;-49
2023/04/15 08:03:33;;;;;;;2.00;0.93;;;13.40;52.10;;;;;;5032414;28;20627;-48
2023/04/15 08:05:59;;;;;;;1.73;0.90;;;13.40;51.90;;;;;;5032736;28;20695;-48
2023/04/15 08:08:25;;;;;;;1.00;0.50;;;13.40;51.60;;;;;;5032605;28;20471;-48
2023/04/15 08:10:51;;;;;;;1.10;0.55;;;13.40;51.70;;;;;;5032852;28;20173;-48
2023/04/15 08:13:17;;;;;;;1.40;0.80;;;13.50;52.10;;;;;;5032570;28;20634;-48
2023/04/15 08:15:43;;;;;;;2.25;1.25;;;13.50;51.50;;;;;;5032305;28;20496;-48
2023/04/15 08:18:09;;;;;;;1.43;0.90;;;13.60;51.70;;;;;;5032208;28;20281;-48
2023/04/15 08:20:36;;;;;;;1.48;0.98;;;13.70;51.70;;;;;;5032252;28;20408;-48
2023/04/15 08:23:02;;;;;;;3.78;1.05;;;13.70;50.90;;;;;;5032298;28;20182;-49
2023/04/15 08:25:28;;;;;;;2.13;1.00;;;14.80;51.80;;;;;;5032158;28;20170;-49
2023/04/15 08:27:57;;;;;;;1.90;1.15;;;14.00;51.10;;;;;;5031997;28;20717;-49
2023/04/15 08:30:22;;;;;;;1.95;1.15;;;13.90;50.80;;;;;;5032077;28;20640;-49
2023/04/15 08:32:49;;;;;;;1.70;1.20;;;14.00;50.80;;;;;;5031872;28;20239;-49
2023/04/15 08:35:15;;;;;;;1.60;1.10;;;14.10;50.80;;;;;;5032095;28;20212;-49
2023/04/15 08:37:41;;;;;;;1.60;1.10;;;14.20;50.60;;;;;;5032005;28;20206;-49
2023/04/15 08:40:08;;;;;;;2.72;1.50;;;14.20;49.60;;;;;;5032305;28;20177;-49
2023/04/15 08:42:42;;;;;;;1.63;0.88;;;14.20;49.90;;;;;;5031884;28;20185;-49
2023/04/15 08:45:12;;;;;;;1.75;0.90;;;14.30;50.00;;;;;;5032047;28;20177;-49
2023/04/15 08:47:39;;;;;;;2.50;1.65;;;14.30;49.90;;;;;;5031535;28;20594;-49
2023/04/15 08:50:08;;;;;;;2.45;1.95;;;14.30;49.30;;;;;;5032158;28;20181;-49
2023/04/15 08:52:34;;;;;;;1.90;1.25;;;14.40;49.50;;;;;;5031930;28;20170;-49
2023/04/15 08:55:02;;;;;;;2.28;1.70;;;14.40;49.40;;;;;;5037873;28;20165;-49
2023/04/15 08:57:28;;;;;;;4.43;1.77;;;14.40;48.90;;;;;;5038713;28;20261;-49
2023/04/15 08:59:57;;;;;;;2.15;1.58;;;14.50;49.30;;;;;;5038367;28;20316;-49
2023/04/15 09:02:26;;;;;;;2.03;1.42;;;14.40;49.30;;;;;;5038183;28;20178;-49
2023/04/15 09:04:52;;;;;;;2.60;2.40;;;14.40;49.20;;;;;;5038268;28;20541;-49
2023/04/15 09:07:18;;;;;;;5.35;3.10;;;14.50;49.60;;;;;;5038121;28;20208;-49
2023/04/15 09:09:43;;;;;;;4.00;2.67;;;14.40;48.90;;;;;;5038401;28;20240;-49
2023/04/15 09:12:11;;;;;;;6.53;5.33;;;14.30;49.00;;;;;;5038487;28;20204;-50
2023/04/15 09:14:39;;;;;;;3.83;3.40;;;14.10;49.10;;;;;;5038145;28;20412;-49
2023/04/15 09:17:08;;;;;;;3.85;3.55;;;14.00;49.60;;;;;;5038563;28;20188;-49
2023/04/15 09:19:34;;;;;;;3.80;3.42;;;14.00;49.60;;;;;;5038116;28;20190;-49
2023/04/15 09:22:01;;;;;;;3.87;3.50;;;13.80;49.50;;;;;;5038089;28;20178;-49
2023/04/15 09:24:39;;;;;;;4.82;4.32;;;13.80;50.10;;;;;;5038454;28;20404;-48
2023/04/15 09:27:06;;;;;;;4.10;3.70;;;13.80;49.90;;;;;;5038101;28;20695;-49
2023/04/15 09:29:32;;;;;;;5.47;4.78;;;13.70;49.70;;;;;;5038139;28;20917;-49
2023/04/15 09:32:12;;;;;;;5.10;4.50;;;13.70;49.90;;;;;;5037913;28;20189;-49
2023/04/15 09:34:38;;;;;;;6.75;5.55;;;13.80;49.30;;;;;;5038467;28;20423;-49
2023/04/15 09:37:03;;;;;;;4.57;4.10;;;13.70;49.10;;;;;;5038386;28;20642;-49
2023/04/15 09:39:48;;;;;;;4.30;3.90;;;13.70;48.70;;;;;;5037912;28;20936;-49
2023/04/15 09:42:16;;;;;;;4.90;4.13;;;13.70;47.90;;;;;;5037794;28;20212;-49
2023/04/15 09:44:42;;;;;;;4.47;4.05;;;13.60;48.00;;;;;;5038097;28;20253;-49
2023/04/15 09:47:08;;;;;;;4.43;3.47;;;13.60;48.50;;;;;;5038117;28;20259;-49
2023/04/15 09:49:33;;;;;;;4.33;3.60;;;13.50;48.50;;;;;;5037878;28;20455;-49
2023/04/15 09:52:00;;;;;;;4.47;3.43;;;13.40;48.50;;;;;;5037820;28;20176;-49
2023/04/15 09:54:37;;;;;;;4.95;3.25;;;13.40;48.20;;;;;;5037901;28;20178;-49
2023/04/15 09:57:09;;;;;;;3.70;3.30;;;13.30;48.20;;;;;;5038234;28;20196;-49
2023/04/15 09:59:35;;;;;;;4.72;3.80;;;13.30;48.00;;;;;;5038095;28;20755;-49
2023/04/15 10:02:05;;;;;;;5.00;4.30;;;13.10;47.50;;;;;;5037651;28;20213;-48
2023/04/15 10:04:34;;;;;;;4.30;3.90;;;13.10;48.00;;;;;;5037321;28;20919;-49
2023/04/15 10:07:02;;;;;;;3.90;3.50;;;13.10;48.20;;;;;;5034031;28;20269;-49
2023/04/15 10:09:29;;;;;;;5.28;4.00;;;13.20;48.20;;;;;;5034685;28;20640;-49
2023/04/15 10:11:55;;;;;;;4.20;3.65;;;13.20;48.10;;;;;;5034404;28;20661;-48
2023/04/15 10:14:22;;;;;;;4.60;4.17;;;13.30;48.20;;;;;;5034642;28;20170;-49
2023/04/15 10:16:48;;;;;;;5.78;4.10;;;13.30;47.70;;;;;;5034533;28;20572;-49
2023/04/15 10:19:17;;;;;;;5.05;3.60;;;13.30;47.70;;;;;;5034492;28;20189;-49
2023/04/15 10:21:44;;;;;;;4.75;3.45;;;13.30;47.40;;;;;;5034533;28;20189;-48
2023/04/15 10:24:10;;;;;;;3.97;3.42;;;13.30;47.10;;;;;;5034580;28;20549;-49
2023/04/15 10:26:37;;;;;;;3.85;3.45;;;13.30;47.50;;;;;;5034301;28;20646;-49
2023/04/15 10:29:03;;;;;;;4.13;3.65;;;13.20;47.30;;;;;;5034171;28;20214;-49
2023/04/15 10:31:29;;;;;;;3.92;3.50;;;13.20;47.10;;;;;;5034302;28;20543;-49
2023/04/15 10:33:56;;;;;;;4.60;4.15;;;13.20;47.10;;;;;;5034039;28;20174;-49
2023/04/15 10:36:22;;;;;;;5.03;4.63;;;13.20;47.80;;;;;;5016491;28;20185;-49
2023/04/15 10:38:48;;;;;;;5.17;4.27;;;13.20;47.80;;;;;;5034017;28;20202;-49
2023/04/15 10:41:22;;;;;;;5.20;4.70;;;13.30;48.50;;;;;;5034372;28;20420;-49
2023/04/15 10:43:55;;;;;;;4.80;4.40;;;13.40;47.10;;;;;;5034040;28;20218;-49
2023/04/15 10:46:42;;;;;;;5.45;4.88;;;13.40;47.20;;;;;;5033917;28;20519;-49
2023/04/15 10:49:12;;;;;;;5.15;4.60;;;13.90;47.60;;;;;;5033681;28;20209;-49
2023/04/15 10:51:43;;;;;;;5.20;4.70;;;13.40;47.40;;;;;;5033845;28;20174;-49
2023/04/15 10:54:29;;;;;;;4.80;4.30;;;13.40;47.30;;;;;;5033758;28;20181;-49
2023/04/15 10:57:01;;;;;;;5.00;4.60;;;13.50;47.70;;;;;;5033785;28;20193;-49
2023/04/15 10:59:38;;;;;;;5.53;4.70;;;13.60;47.30;;;;;;5033672;28;20194;-49
2023/04/15 11:02:05;;;;;;;5.95;4.25;;;13.60;46.90;;;;;;5033641;28;20181;-49
2023/04/15 11:04:59;;;;;;;4.65;4.25;;;13.60;46.80;;;;;;5033620;28;20189;-49
2023/04/15 11:07:35;;;;;;;5.63;4.53;;;13.60;46.40;;;;;;5033648;28;20221;-49
2023/04/15 11:10:02;;;;;;;5.65;5.15;;;13.60;46.40;;;;;;5033906;28;20212;-49
2023/04/15 11:12:35;;;;;;;4.80;4.30;;;13.70;47.00;;;;;;5033382;28;20508;-49
2023/04/15 11:15:41;;;;;;;4.82;4.35;;;13.80;46.40;;;;;;5033511;28;20170;-49
2023/04/15 11:18:11;;;;;;;4.55;4.15;;;13.90;46.90;;;;;;5033021;28;20666;-49
2023/04/15 11:20:44;;;;;;;5.28;4.25;;;13.90;46.70;;;;;;5033477;28;20205;-49
2023/04/15 11:23:10;;;;;;;4.32;3.92;;;14.00;46.00;;;;;;5033141;28;20551;-49
2023/04/15 11:25:36;;;;;;;4.47;4.07;;;14.00;45.40;;;;;;5033301;28;20177;-49
2023/04/15 11:28:03;;;;;;;4.30;3.50;;;14.10;45.70;;;;;;5032891;28;20244;-49
2023/04/15 11:30:36;;;;;;;3.67;3.38;;;14.10;45.30;;;;;;5033253;28;20182;-49
2023/04/15 11:33:04;;;;;;;5.03;4.53;;;14.20;46.00;;;;;;5033261;28;20171;-49
2023/04/15 11:35:30;;;;;;;5.68;4.80;;;14.20;45.70;;;;;;5033350;28;20196;-49
2023/04/15 11:37:57;;;;;;;3.15;2.85;;;14.30;45.80;;;;;;5033038;28;20566;-49
2023/04/15 11:40:28;;;;;;;3.35;3.05;;;14.40;45.70;;;;;;5033035;28;20166;-49
2023/04/15 11:43:08;;;;;;;3.88;3.30;;;14.40;44.30;;;;;;5032741;28;20170;-49
2023/04/15 11:45:35;;;;;;;3.47;3.17;;;14.40;44.70;;;;;;5033240;28;20166;-49
2023/04/15 11:48:09;;;;;;;3.58;2.95;;;14.40;45.30;;;;;;5032828;28;20214;-49
2023/04/15 11:50:36;;;;;;;3.65;2.75;;;14.40;45.00;;;;;;5032929;28;20166;-49
2023/04/15 11:53:09;;;;;;;2.63;2.40;;;14.40;44.40;;;;;;5032721;28;20182;-49
2023/04/15 11:55:47;;;;;;;4.55;3.13;;;14.30;43.70;;;;;;5032650;28;20662;-49
2023/04/15 11:58:17;;;;;;;3.10;2.90;;;14.30;43.80;;;;;;5032540;28;20601;-49
2023/04/15 12:00:54;;;;;;;3.33;3.03;;;14.30;43.90;;;;;;5032905;28;20178;-49
2023/04/15 12:03:22;;;;;;;4.15;3.50;;;14.40;43.60;;;;;;5032200;28;20215;-49
2023/04/15 12:06:06;;;;;;;4.47;2.78;;;14.40;43.50;;;;;;5032841;28;20181;-49
2023/04/15 12:08:54;;;;;;;3.28;2.97;;;14.40;43.10;;;;;;5032510;28;20245;-49
2023/04/15 12:11:28;;;;;;;3.60;2.78;;;14.30;43.20;;;;;;5032702;28;20162;-49
2023/04/15 12:14:08;;;;;;;4.03;3.70;;;14.20;43.50;;;;;;5031984;28;20174;-49
2023/04/15 12:16:36;;;;;;;4.32;3.40;;;14.20;44.40;;;;;;5032553;28;20312;-49
2023/04/15 12:19:06;;;;;;;2.65;2.25;;;14.30;44.30;;;;;;5032392;28;20198;-49
2023/04/15 12:21:37;;;;;;;2.60;2.40;;;14.30;44.00;;;;;;5032258;28;20163;-49
2023/04/15 12:24:07;;;;;;;2.88;2.58;;;14.40;44.00;;;;;;5032430;28;20209;-49
2023/04/15 12:26:43;;;;;;;2.25;2.05;;;14.40;43.70;;;;;;5032066;28;20174;-50
2023/04/15 12:29:11;;;;;;;2.60;2.25;;;14.40;42.80;;;;;;5031811;28;20213;-49
2023/04/15 12:31:45;;;;;;;2.70;2.50;;;14.40;43.20;;;;;;5032459;28;20170;-49
2023/04/15 12:34:13;;;;;;;3.90;2.80;;;14.50;42.70;;;;;;5032129;28;20176;-49
2023/04/15 12:36:38;;;;;;;3.00;2.40;;;14.50;42.20;;;;;;5032309;28;20213;-49
2023/04/15 12:39:05;;;;;;;2.67;2.47;;;14.40;42.20;;;;;;5032169;28;20197;-49
2023/04/15 12:41:31;;;;;;;5.90;2.17;;;14.40;42.30;;;;;;5032309;28;20201;-49
2023/04/15 12:43:58;;;;;;;2.90;2.17;;;14.40;42.80;;;;;;5032162;28;20181;-49
2023/04/15 12:46:24;;;;;;;2.78;2.20;;;14.50;43.30;;;;;;5032163;28;20182;-49
2023/04/15 12:48:52;;;;;;;3.58;2.78;;;14.60;43.10;;;;;;5031787;28;20559;-49